createdAt,value
2022-11-09T00:00:38.117Z,16.86
2022-11-09T00:05:55.482Z,16.83
2022-11-09T00:11:11.099Z,16.84
2022-11-09T00:16:16.529Z,16.81
2022-11-09T00:21:22.667Z,16.78
2022-11-09T00:26:26.370Z,16.75
2022-11-09T00:31:29.649Z,16.74
2022-11-09T00:36:36.769Z,16.71
2022-11-09T00:41:40.356Z,16.72
2022-11-09T00:46:43.779Z,16.72
2022-11-09T00:51:47.871Z,16.71
2022-11-09T00:56:51.384Z,16.66
2022-11-09T01:01:55.188Z,16.64
2022-11-09T01:06:58.918Z,16.62
2022-11-09T01:12:02.851Z,16.68
2022-11-09T01:17:06.685Z,16.70
2022-11-09T01:22:09.967Z,16.70
2022-11-09T01:27:13.413Z,16.73
2022-11-09T01:32:16.871Z,16.73
2022-11-09T01:37:20.220Z,16.79
2022-11-09T01:42:25.963Z,16.86
2022-11-09T01:47:30.438Z,16.93
2022-11-09T01:52:42.144Z,16.95
2022-11-09T01:57:55.696Z,16.94
2022-11-09T02:03:25.514Z,16.89
2022-11-09T02:08:29.275Z,16.85
2022-11-09T02:13:34.309Z,16.82
2022-11-09T02:18:53.026Z,16.80
2022-11-09T02:23:57.019Z,16.74
2022-11-09T02:29:05.653Z,16.73
2022-11-09T02:34:19.854Z,16.72
2022-11-09T02:39:27.407Z,16.72
2022-11-09T02:44:36.788Z,16.71
2022-11-09T02:49:40.243Z,16.68
2022-11-09T02:54:45.202Z,16.68
2022-11-09T02:59:48.926Z,16.69
2022-11-09T03:04:52.593Z,16.69
2022-11-09T03:10:00.689Z,16.68
2022-11-09T03:15:08.456Z,16.67
2022-11-09T03:20:15.095Z,16.65
2022-11-09T03:25:19.094Z,16.62
2022-11-09T03:30:22.402Z,16.64
2022-11-09T03:35:26.224Z,16.63
2022-11-09T03:40:30.134Z,16.65
2022-11-09T03:45:33.627Z,16.64
2022-11-09T03:50:37.173Z,16.62
2022-11-09T03:55:40.792Z,16.68
2022-11-09T04:00:44.095Z,16.73
2022-11-09T04:05:47.632Z,16.78
2022-11-09T04:10:51.591Z,16.87
2022-11-09T04:15:54.888Z,16.97
2022-11-09T04:20:59.386Z,17.02
2022-11-09T04:26:02.551Z,17.02
2022-11-09T04:31:05.983Z,17.05
2022-11-09T04:36:09.516Z,17.15
2022-11-09T04:41:13.080Z,17.30
2022-11-09T04:46:16.563Z,17.38
2022-11-09T04:51:20.319Z,17.49
2022-11-09T04:56:23.635Z,17.62
2022-11-09T05:01:27.439Z,17.74
2022-11-09T05:06:31.596Z,17.81
2022-11-09T05:11:36.201Z,17.93
2022-11-09T05:16:39.318Z,18.01
2022-11-09T05:21:42.526Z,18.10
2022-11-09T05:26:46.193Z,18.15
2022-11-09T05:31:52.403Z,18.14
2022-11-09T05:37:02.240Z,18.12
2022-11-09T05:42:06.649Z,18.14
2022-11-09T05:47:09.958Z,18.19
2022-11-09T05:52:13.597Z,18.10
2022-11-09T05:57:16.923Z,17.97
2022-11-09T06:02:20.508Z,18.03
2022-11-09T06:07:24.196Z,17.97
2022-11-09T06:12:27.317Z,17.86
2022-11-09T06:17:36.770Z,17.82
2022-11-09T06:22:40.592Z,17.86
2022-11-09T06:27:43.905Z,17.82
2022-11-09T06:32:47.022Z,17.84
2022-11-09T06:37:55.996Z,17.79
2022-11-09T06:43:00.690Z,17.66
2022-11-09T06:48:04.527Z,17.67
2022-11-09T06:53:10.816Z,18.67
2022-11-09T06:58:15.537Z,19.26
2022-11-09T07:03:20.724Z,18.94
2022-11-09T07:08:24.326Z,18.68
2022-11-09T07:13:27.891Z,18.63
2022-11-09T07:18:31.607Z,18.67
2022-11-09T07:23:34.929Z,18.84
2022-11-09T07:28:38.478Z,19.10
2022-11-09T07:33:41.875Z,19.27
2022-11-09T07:38:45.753Z,19.28
2022-11-09T07:43:49.224Z,19.45
2022-11-09T07:48:52.697Z,19.58
2022-11-09T07:53:56.549Z,19.72
2022-11-09T07:58:59.944Z,20.05
2022-11-09T08:04:03.680Z,20.22
2022-11-09T08:09:07.021Z,20.48
2022-11-09T08:14:11.095Z,20.68
2022-11-09T08:19:15.058Z,20.50
2022-11-09T08:24:18.432Z,20.10
2022-11-09T08:29:21.864Z,19.78
2022-11-09T08:34:25.106Z,19.51
2022-11-09T08:39:28.333Z,19.32
2022-11-09T08:44:31.862Z,19.26
2022-11-09T08:49:35.441Z,19.24
2022-11-09T08:54:38.750Z,19.38
2022-11-09T08:59:42.057Z,19.53
2022-11-09T09:04:45.383Z,19.75
2022-11-09T09:09:48.585Z,19.85
2022-11-09T09:14:52.078Z,19.89
2022-11-09T09:19:56.246Z,19.78
2022-11-09T09:24:59.854Z,19.83
2022-11-09T09:30:04.417Z,19.91
2022-11-09T09:35:08.544Z,19.71
2022-11-09T09:40:35.560Z,19.41
2022-11-09T09:45:50.542Z,19.40
2022-11-09T09:51:01.598Z,19.57
2022-11-09T09:56:17.396Z,19.66
2022-11-09T10:01:24.206Z,19.55
2022-11-09T10:07:08.528Z,19.46
2022-11-09T10:12:53.608Z,19.74
2022-11-09T10:18:14.542Z,20.01
2022-11-09T10:23:41.812Z,20.18
2022-11-09T10:29:14.943Z,20.17
2022-11-09T10:34:30.782Z,20.09
2022-11-09T10:39:46.054Z,19.98
2022-11-09T10:45:33.370Z,20.16
2022-11-09T10:50:56.358Z,20.32
2022-11-09T10:56:21.984Z,20.34
2022-11-09T11:01:44.313Z,20.57
2022-11-09T11:07:21.391Z,20.89
2022-11-09T11:12:46.026Z,20.99
2022-11-09T11:18:34.810Z,20.97
2022-11-09T11:24:13.429Z,20.93
2022-11-09T11:29:49.946Z,20.86
2022-11-09T11:35:17.962Z,20.82
2022-11-09T11:41:01.660Z,20.85
2022-11-09T11:46:40.737Z,20.97
2022-11-09T11:52:23.841Z,21.07
2022-11-09T11:58:07.939Z,21.06
2022-11-09T12:03:45.894Z,20.99
2022-11-09T12:09:41.176Z,20.90
2022-11-09T12:15:17.590Z,20.89
2022-11-09T12:20:57.994Z,20.82
2022-11-09T12:26:55.736Z,20.65
2022-11-09T12:32:49.617Z,20.48
2022-11-09T12:38:18.397Z,20.41
2022-11-09T12:43:53.841Z,20.28
2022-11-09T12:49:32.690Z,20.14
2022-11-09T12:54:57.156Z,20.04
2022-11-09T13:00:35.932Z,20.00
2022-11-09T13:06:26.308Z,19.92
2022-11-09T13:11:51.983Z,19.81
2022-11-09T13:17:28.503Z,19.82
2022-11-09T13:22:50.139Z,19.71
2022-11-09T13:28:30.365Z,19.63
2022-11-09T13:34:30.241Z,19.61
2022-11-09T13:39:53.166Z,19.54
2022-11-09T13:45:38.468Z,19.51
2022-11-09T13:51:04.508Z,19.45
2022-11-09T13:56:35.943Z,19.40
2022-11-09T14:02:00.448Z,19.35
2022-11-09T14:07:28.184Z,19.31
2022-11-09T14:13:12.302Z,19.20
2022-11-09T14:19:06.067Z,19.10
2022-11-09T14:24:32.049Z,18.97
2022-11-09T14:29:56.688Z,18.86
2022-11-09T14:35:20.339Z,18.77
2022-11-09T14:40:47.097Z,18.66
2022-11-09T14:46:22.785Z,18.53
2022-11-09T14:51:44.648Z,18.40
2022-11-09T14:57:06.873Z,18.28
2022-11-09T15:02:28.865Z,18.14
2022-11-09T15:07:50.601Z,18.04
2022-11-09T15:13:12.685Z,17.96
2022-11-09T15:18:36.916Z,17.89
2022-11-09T15:24:11.168Z,17.85
2022-11-09T15:29:42.004Z,17.77
2022-11-09T15:35:16.760Z,17.71
2022-11-09T15:40:38.179Z,17.65
2022-11-09T15:46:01.471Z,17.59
2022-11-09T15:51:23.375Z,17.51
2022-11-09T15:56:47.047Z,17.48
2022-11-09T16:02:11.157Z,17.49
2022-11-09T16:07:32.760Z,17.45
2022-11-09T16:12:54.597Z,17.43
2022-11-09T16:18:21.345Z,17.39
2022-11-09T16:23:47.224Z,17.36
2022-11-09T16:29:09.087Z,17.34
2022-11-09T16:34:31.026Z,17.32
2022-11-09T16:39:53.534Z,17.32
2022-11-09T16:45:17.393Z,17.33
2022-11-09T16:50:39.484Z,17.31
2022-11-09T16:56:01.110Z,17.33
2022-11-09T17:01:23.817Z,17.32
2022-11-09T17:06:46.515Z,17.30
2022-11-09T17:12:11.291Z,17.30
2022-11-09T17:17:33.396Z,17.28
2022-11-09T17:22:56.375Z,17.25
2022-11-09T17:28:18.854Z,17.23
2022-11-09T17:33:44.419Z,17.23
2022-11-09T17:39:06.525Z,17.23
2022-11-09T17:44:28.392Z,17.23
2022-11-09T17:49:50.285Z,17.26
2022-11-09T17:55:12.591Z,17.29
2022-11-09T18:00:34.218Z,17.31
2022-11-09T18:05:56.486Z,17.32
2022-11-09T18:11:19.905Z,17.29
2022-11-09T18:16:42.143Z,17.27
2022-11-09T18:22:06.559Z,17.25
2022-11-09T18:27:33.037Z,17.19
2022-11-09T18:32:54.719Z,17.15
2022-11-09T18:38:19.961Z,17.12
2022-11-09T18:43:42.660Z,17.12
2022-11-09T18:49:04.538Z,17.07
2022-11-09T18:54:26.878Z,17.06
2022-11-09T18:59:48.708Z,17.01
2022-11-09T19:05:10.538Z,16.95
2022-11-09T19:10:35.914Z,16.94
2022-11-09T19:15:58.615Z,16.90
2022-11-09T19:21:41.145Z,16.88
2022-11-09T19:27:04.510Z,16.86
2022-11-09T19:32:27.351Z,16.83
2022-11-09T19:37:49.390Z,16.82
2022-11-09T19:43:11.347Z,16.84
2022-11-09T19:48:34.544Z,16.86
2022-11-09T19:53:58.410Z,16.86
2022-11-09T19:59:20.497Z,16.83
2022-11-09T20:04:42.569Z,16.83
2022-11-09T20:10:06.591Z,16.84
2022-11-09T20:15:28.836Z,16.85
2022-11-09T20:20:54.043Z,16.83
2022-11-09T20:26:16.414Z,16.84
2022-11-09T20:31:38.342Z,16.78
2022-11-09T20:37:00.127Z,16.78
2022-11-09T20:42:21.973Z,16.79
2022-11-09T20:48:05.033Z,16.81
2022-11-09T20:53:25.412Z,16.81
2022-11-09T20:58:47.943Z,16.81
2022-11-09T21:04:09.617Z,16.80
2022-11-09T21:09:31.826Z,16.83
2022-11-09T21:14:56.317Z,16.82
2022-11-09T21:20:20.477Z,16.80
2022-11-09T21:25:42.688Z,16.76
2022-11-09T21:31:04.756Z,16.76
2022-11-09T21:36:26.893Z,16.72
2022-11-09T21:41:49.274Z,16.74
2022-11-09T21:47:11.429Z,16.72
2022-11-09T21:52:33.289Z,16.76
2022-11-09T21:57:55.473Z,16.75
2022-11-09T22:03:17.238Z,16.75
2022-11-09T22:08:39.491Z,16.77
2022-11-09T22:14:02.131Z,16.76
2022-11-09T22:19:23.856Z,16.76
2022-11-09T22:24:47.152Z,16.73
2022-11-09T22:30:09.270Z,16.69
2022-11-09T22:35:31.074Z,16.71
2022-11-09T22:40:55.300Z,16.73
2022-11-09T22:46:18.510Z,16.73
2022-11-09T22:51:40.800Z,16.66
2022-11-09T22:57:03.497Z,16.63
2022-11-09T23:02:26.021Z,16.57
2022-11-09T23:07:47.829Z,16.56
2022-11-09T23:13:09.984Z,16.52
2022-11-09T23:18:32.955Z,16.51
2022-11-09T23:23:59.291Z,16.50
2022-11-09T23:29:21.857Z,16.48
2022-11-09T23:34:43.691Z,16.52
2022-11-09T23:40:06.973Z,16.51
2022-11-09T23:45:29.407Z,16.45
2022-11-09T23:50:51.219Z,16.38
2022-11-09T23:56:12.956Z,16.36
